Time;durP1;ratioP1;P1;durP2;ratioP2;P2;SDS_P1;SDS_P2;PMS_P1;PMS_P2;Temp;Humidity;BMP_temperature;BMP_pressure;BME280_temperature;BME280_humidity;BME280_pressure;Samples;Min_cycle;Max_cycle;Signal;HPM_P1;HPM_P2
2022/01/19 00:00:18;;;;;;;9.93;7.17;;;;;;;0.40;88.11;96971.03;4998711;28;20191;-80
2022/01/19 00:02:43;;;;;;;9.40;6.30;;;;;;;0.33;88.19;96981.50;4998535;28;20179;-80
2022/01/19 00:05:12;;;;;;;9.10;6.40;;;;;;;0.25;88.44;96972.38;5013315;28;20667;-80
2022/01/19 00:07:38;;;;;;;7.67;6.03;;;;;;;0.17;88.05;96976.88;5015755;28;20206;-81
2022/01/19 00:10:08;;;;;;;11.20;6.20;;;;;;;0.14;88.99;96971.88;5015325;28;20175;-80
2022/01/19 00:12:34;;;;;;;8.87;5.90;;;;;;;-0.05;89.30;96958.88;5014547;28;20182;-81
2022/01/19 00:14:59;;;;;;;7.10;5.67;;;;;;;-0.15;90.18;96951.56;5014827;28;20171;-80
2022/01/19 00:17:25;;;;;;;9.60;6.90;;;;;;;-0.24;90.87;96952.69;5014751;28;20217;-80
2022/01/19 00:19:50;;;;;;;9.70;6.83;;;;;;;-0.33;90.51;96948.69;4997879;28;20183;-81
2022/01/19 00:22:15;;;;;;;10.37;7.23;;;;;;;-0.36;91.26;96948.75;5013610;28;20289;-81
2022/01/19 00:24:42;;;;;;;10.37;6.80;;;;;;;-0.40;90.80;96947.22;5014537;28;20211;-81
2022/01/19 00:27:07;;;;;;;9.43;6.77;;;;;;;-0.41;91.21;96954.91;4998847;28;20221;-80
2022/01/19 00:29:33;;;;;;;9.50;6.83;;;;;;;-0.42;91.57;96955.78;5014187;28;20563;-80
2022/01/19 00:31:58;;;;;;;9.63;6.60;;;;;;;-0.42;91.97;96959.19;5013604;28;20654;-80
2022/01/19 00:34:23;;;;;;;8.53;6.77;;;;;;;-0.44;92.15;96957.53;5014375;28;20197;-81
2022/01/19 00:36:49;;;;;;;9.97;6.80;;;;;;;-0.31;91.83;96964.78;4997680;28;20204;-81
2022/01/19 00:39:14;;;;;;;11.50;6.23;;;;;;;-0.31;91.16;96967.34;4997262;28;20682;-80
2022/01/19 00:41:39;;;;;;;10.13;6.53;;;;;;;-0.41;91.03;96972.78;5012985;28;20181;-81
2022/01/19 00:44:04;;;;;;;8.47;6.30;;;;;;;-0.55;91.42;96968.06;4997154;28;20221;-81
2022/01/19 00:46:30;;;;;;;8.10;6.10;;;;;;;-0.65;92.07;96964.97;4997568;28;20332;-81
2022/01/19 00:48:55;;;;;;;8.43;5.80;;;;;;;-0.75;92.58;96958.47;5013688;28;20732;-81
2022/01/19 00:51:20;;;;;;;8.53;6.13;;;;;;;-0.81;93.36;96958.63;4996656;28;20183;-80
2022/01/19 00:53:46;;;;;;;11.70;6.40;;;;;;;-0.90;93.63;96953.78;5013469;28;20183;-80
2022/01/19 00:56:11;;;;;;;8.83;6.60;;;;;;;-0.95;93.78;96948.84;5013574;28;20203;-81
2022/01/19 00:58:36;;;;;;;7.30;6.03;;;;;;;-0.97;93.80;96944.63;4996920;28;20684;-80
2022/01/19 01:01:02;;;;;;;10.30;6.27;;;;;;;-1.03;93.39;96934.63;4996999;28;20189;-80
2022/01/19 01:03:27;;;;;;;11.43;6.27;;;;;;;-1.08;93.72;96937.31;4995760;28;20556;-80
2022/01/19 01:05:52;;;;;;;11.20;6.30;;;;;;;-1.11;94.02;96934.84;4995285;28;20195;-80
2022/01/19 01:08:18;;;;;;;9.20;6.67;;;;;;;-1.13;94.11;96933.22;4996248;28;20217;-80
2022/01/19 01:10:43;;;;;;;9.30;6.50;;;;;;;-1.15;94.38;96931.56;5013798;28;20179;-81
2022/01/19 01:16:04;;;;;;;9.43;6.13;;;;;;;-1.15;94.58;96929.00;5005772;28;20185;-80
2022/01/19 01:18:31;;;;;;;10.50;7.03;;;;;;;-1.10;94.48;96917.84;5013501;28;20290;-81
2022/01/19 01:20:59;;;;;;;8.57;7.50;;;;;;;-1.07;94.20;96915.19;5013235;28;20404;-80
2022/01/19 01:23:27;;;;;;;13.30;7.97;;;;;;;-1.07;94.20;96907.53;5006654;28;20202;-80
2022/01/19 01:25:53;;;;;;;12.03;8.47;;;;;;;-1.05;95.20;96904.09;4994235;28;20189;-80
2022/01/19 01:28:19;;;;;;;13.97;8.37;;;;;;;-1.00;94.59;96889.47;4978720;28;20324;-81
2022/01/19 01:30:45;;;;;;;11.30;7.77;;;;;;;-0.98;94.58;96890.25;4996366;28;20187;-80
2022/01/19 01:33:10;;;;;;;11.93;8.57;;;;;;;-0.97;94.89;96876.66;4994127;28;20237;-80
2022/01/19 01:35:36;;;;;;;12.67;8.23;;;;;;;-0.93;94.48;96885.03;4977984;28;20185;-81
2022/01/19 01:38:02;;;;;;;13.00;8.00;;;;;;;-0.94;94.58;96884.19;4979065;28;20194;-80
2022/01/19 01:40:31;;;;;;;11.27;8.40;;;;;;;-0.91;94.62;96888.38;4994995;28;20531;-81
2022/01/19 01:42:57;;;;;;;12.40;8.13;;;;;;;-0.94;94.61;96908.88;5013545;28;20258;-80
2022/01/19 01:45:29;;;;;;;12.77;9.37;;;;;;;-0.81;94.34;96912.72;5015075;28;20201;-81
2022/01/19 01:48:19;;;;;;;16.67;9.67;;;;;;;-0.89;94.33;96892.53;4999260;28;20208;-80
2022/01/19 01:53:27;;;;;;;12.33;9.37;;;;;;;-0.99;94.41;96883.50;5015997;28;20207;-81
2022/01/19 01:56:04;;;;;;;14.33;10.23;;;;;;;-0.96;94.68;96873.22;5015013;28;20177;-80
2022/01/19 01:58:32;;;;;;;14.47;9.57;;;;;;;-1.09;94.31;96877.00;5017395;28;20248;-79
2022/01/19 02:00:58;;;;;;;15.43;10.23;;;;;;;-1.16;94.69;96870.41;5016386;28;20185;-79
2022/01/19 02:03:24;;;;;;;13.67;10.30;;;;;;;-1.21;95.07;96859.53;4999508;28;20189;-80
2022/01/19 02:08:24;;;;;;;15.07;10.20;;;;;;;-1.32;95.12;96848.81;5016890;28;20201;-80
2022/01/19 02:24:03;;;;;;;13.33;10.00;;;;;;;-1.61;95.68;96812.22;5016974;28;20209;-80
2022/01/19 02:26:45;;;;;;;17.83;10.10;;;;;;;-1.65;95.91;96808.09;5018224;28;20226;-80
2022/01/19 02:40:10;;;;;;;16.07;11.47;;;;;;;-1.74;96.49;96782.91;5019943;28;20188;-81
2022/01/19 02:42:34;;;;;;;16.03;11.17;;;;;;;-1.79;96.27;96777.09;5018884;28;20605;-81
2022/01/19 02:49:54;;;;;;;17.27;11.87;;;;;;;-1.76;96.17;96757.47;5021924;28;20209;-81
2022/01/19 02:52:21;;;;;;;16.87;11.77;;;;;;;-1.76;96.67;96754.94;5004883;28;20188;-81
2022/01/19 02:54:48;;;;;;;17.43;11.97;;;;;;;-1.82;96.99;96750.00;5006069;28;20185;-81
2022/01/19 02:57:14;;;;;;;20.00;13.30;;;;;;;-1.75;97.13;96738.78;5022121;28;20255;-81
2022/01/19 03:10:34;;;;;;;18.47;11.97;;;;;;;-1.84;98.02;96722.94;5025290;28;20179;-81
2022/01/19 03:12:59;;;;;;;20.90;13.10;;;;;;;-1.73;97.23;96713.25;5023488;28;20238;-81
2022/01/19 03:15:25;;;;;;;21.97;11.90;;;;;;;-1.77;96.98;96706.56;5006833;28;20177;-81
2022/01/19 03:17:50;;;;;;;17.97;11.60;;;;;;;-1.91;97.82;96696.78;5023928;28;20201;-80
2022/01/19 03:20:16;;;;;;;20.97;11.73;;;;;;;-1.69;97.42;96691.06;5024582;28;20185;-81
2022/01/19 03:23:01;;;;;;;19.10;11.00;;;;;;;-1.75;96.92;96697.19;5024022;28;20230;-81
2022/01/19 03:25:26;;;;;;;17.47;11.67;;;;;;;-1.81;97.32;96682.91;5026668;28;20211;-80
2022/01/19 03:27:52;;;;;;;19.03;12.10;;;;;;;-1.71;97.24;96688.56;5010966;28;20200;-79
2022/01/19 03:30:19;;;;;;;20.00;12.53;;;;;;;-1.76;97.36;96676.00;5026728;28;20205;-80
2022/01/19 03:32:44;;;;;;;18.80;11.83;;;;;;;-1.77;97.31;96681.09;5024833;28;20186;-80
2022/01/19 03:35:11;;;;;;;19.33;12.40;;;;;;;-1.83;96.76;96679.59;5009529;28;20207;-81
2022/01/19 03:37:37;;;;;;;21.80;12.30;;;;;;;-1.82;97.30;96676.16;5027355;28;20208;-81
2022/01/19 03:40:03;;;;;;;17.37;12.10;;;;;;;-1.72;97.52;96681.81;5010029;28;20181;-81
2022/01/19 03:42:29;;;;;;;16.63;12.17;;;;;;;-1.77;97.27;96681.97;5008503;28;20226;-80
2022/01/19 03:44:54;;;;;;;17.93;13.40;;;;;;;-1.80;97.19;96676.94;5026064;28;20211;-81
2022/01/19 03:47:19;;;;;;;18.83;11.83;;;;;;;-1.78;97.78;96675.19;5009090;28;20183;-80
2022/01/19 03:49:45;;;;;;;21.63;12.83;;;;;;;-1.80;97.49;96674.38;5026497;28;20175;-80
2022/01/19 03:52:10;;;;;;;21.77;12.60;;;;;;;-1.79;97.96;96665.03;5008944;28;20183;-81
2022/01/19 03:54:38;;;;;;;20.23;13.00;;;;;;;-1.81;97.63;96661.72;5025373;28;20186;-81
2022/01/19 03:57:04;;;;;;;18.77;12.10;;;;;;;-1.81;98.28;96656.63;5026542;28;20199;-80
2022/01/19 03:59:29;;;;;;;19.50;12.20;;;;;;;-1.82;98.25;96653.25;5009409;28;20197;-81
2022/01/19 04:01:56;;;;;;;20.87;11.90;;;;;;;-1.74;98.01;96658.09;5008052;28;20543;-82
2022/01/19 04:07:09;;;;;;;20.10;12.27;;;;;;;-1.80;97.79;96653.19;5025414;28;20180;-80
2022/01/19 04:09:43;;;;;;;19.20;12.37;;;;;;;-1.82;97.95;96649.88;5026567;28;20234;-81
2022/01/19 04:12:13;;;;;;;23.27;12.50;;;;;;;-1.90;98.16;96651.81;5008102;28;20218;-81
2022/01/19 04:14:38;;;;;;;18.67;13.13;;;;;;;-1.90;98.60;96646.72;5024876;28;20176;-81
2022/01/19 04:17:06;;;;;;;18.73;12.27;;;;;;;-1.81;98.43;96641.34;5006985;28;20624;-81
2022/01/19 04:19:48;;;;;;;18.57;12.83;;;;;;;-1.90;98.32;96636.53;5024101;28;20201;-81
2022/01/19 04:22:18;;;;;;;21.93;12.60;;;;;;;-1.76;97.82;96639.50;5025599;28;20177;-79
2022/01/19 04:24:45;;;;;;;20.90;12.67;;;;;;;-1.82;97.57;96627.78;5008252;28;20212;-80
2022/01/19 04:29:46;;;;;;;18.10;12.23;;;;;;;-1.90;98.13;96617.00;5024945;28;20188;-80
2022/01/19 04:32:17;;;;;;;22.03;13.03;;;;;;;-1.87;98.34;96604.16;5023770;28;20269;-80
2022/01/19 04:34:44;;;;;;;20.90;13.80;;;;;;;-1.87;98.33;96616.06;5008589;28;20176;-80
2022/01/19 04:44:03;;;;;;;20.10;13.10;;;;;;;-1.90;98.31;96585.59;5024025;28;20650;-79
2022/01/19 05:01:51;;;;;;;21.27;12.87;;;;;;;-1.96;99.01;96567.97;5008036;28;20265;-80
2022/01/19 05:06:51;;;;;;;24.50;14.03;;;;;;;-1.92;98.29;96572.09;5020638;28;20180;-81
2022/01/19 05:09:39;;;;;;;21.30;13.30;;;;;;;-1.94;98.58;96568.75;5006505;28;20205;-79
2022/01/19 05:14:49;;;;;;;26.00;14.43;;;;;;;-1.94;99.08;96564.50;5008673;28;20269;-80
2022/01/19 05:17:14;;;;;;;27.93;17.80;;;;;;;-2.00;99.16;96559.59;5004924;28;20177;-80
2022/01/19 05:19:39;;;;;;;29.27;16.17;;;;;;;-2.05;99.50;96557.19;5005128;28;20191;-79
2022/01/19 05:22:05;;;;;;;24.73;16.10;;;;;;;-2.03;100.00;96558.00;5004113;28;20198;-79
2022/01/19 05:24:30;;;;;;;23.57;15.90;;;;;;;-1.93;100.00;96552.63;5022467;28;20266;-78
2022/01/19 05:26:55;;;;;;;25.40;16.20;;;;;;;-1.98;99.72;96552.75;5018094;28;20191;-80
2022/01/19 05:29:21;;;;;;;28.97;18.57;;;;;;;-2.01;100.00;96556.22;5022430;28;20192;-80
2022/01/19 05:31:46;;;;;;;24.40;15.70;;;;;;;-2.04;100.00;96558.00;5022492;28;20203;-80
2022/01/19 05:34:11;;;;;;;26.47;16.13;;;;;;;-2.06;100.00;96552.97;5023149;28;20184;-80
2022/01/19 05:36:37;;;;;;;23.70;14.80;;;;;;;-2.11;100.00;96534.47;5006119;28;20173;-82
2022/01/19 05:39:05;;;;;;;31.03;17.30;;;;;;;-2.15;100.00;96535.44;5022580;28;20200;-78
2022/01/19 05:41:30;;;;;;;29.33;16.37;;;;;;;-2.20;100.00;96532.22;5022458;28;20185;-80
2022/01/19 05:43:56;;;;;;;27.20;16.93;;;;;;;-2.22;100.00;96544.13;5007197;28;20196;-80
2022/01/19 05:46:21;;;;;;;27.83;16.10;;;;;;;-2.24;100.00;96545.91;5006470;28;20183;-79
2022/01/19 05:48:47;;;;;;;27.13;16.00;;;;;;;-2.27;100.00;96551.09;5006168;28;20229;-80
2022/01/19 05:51:12;;;;;;;25.10;13.87;;;;;;;-2.26;100.00;96540.03;5005098;28;20191;-79
2022/01/19 05:53:37;;;;;;;27.43;15.70;;;;;;;-2.32;100.00;96541.03;5006943;28;20663;-80
2022/01/19 05:56:03;;;;;;;23.33;14.40;;;;;;;-2.31;100.00;96541.88;5022518;28;20192;-80
2022/01/19 05:58:28;;;;;;;25.30;14.83;;;;;;;-2.29;100.00;96543.50;5005914;28;20209;-80
2022/01/19 06:00:54;;;;;;;27.43;15.20;;;;;;;-2.35;100.00;96543.69;5020157;28;20205;-79
2022/01/19 06:03:19;;;;;;;28.57;15.37;;;;;;;-2.36;100.00;96541.19;5015740;28;20189;-79
2022/01/19 06:05:44;;;;;;;23.03;14.20;;;;;;;-2.41;100.00;96548.09;5019015;28;20219;-81
2022/01/19 06:10:48;;;;;;;21.50;15.00;;;;;;;-2.49;100.00;96550.03;5022585;28;20182;-81
2022/01/19 06:13:17;;;;;;;21.77;15.23;;;;;;;-2.54;100.00;96552.72;5020584;28;20183;-80
2022/01/19 06:15:43;;;;;;;26.40;13.93;;;;;;;-2.49;100.00;96553.41;5019864;28;20222;-80
2022/01/19 06:18:12;;;;;;;24.97;14.90;;;;;;;-2.48;100.00;96554.25;5016491;28;20200;-80
2022/01/19 06:20:39;;;;;;;26.73;15.30;;;;;;;-2.49;100.00;96543.25;5004807;28;20183;-81
2022/01/19 06:23:05;;;;;;;19.70;13.33;;;;;;;-2.40;100.00;96539.59;5018327;28;20195;-78
2022/01/19 06:25:30;;;;;;;22.73;12.60;;;;;;;-2.38;100.00;96538.69;5005725;28;20234;-79
2022/01/19 06:27:56;;;;;;;22.30;12.70;;;;;;;-2.40;100.00;96531.97;5003900;28;20262;-80
2022/01/19 06:30:21;;;;;;;20.37;12.23;;;;;;;-2.41;100.00;96532.84;5002685;28;20176;-78
2022/01/19 06:32:47;;;;;;;21.63;13.87;;;;;;;-2.46;99.95;96524.53;5018052;28;20263;-80
2022/01/19 06:35:13;;;;;;;28.97;14.43;;;;;;;-2.51;100.00;96522.09;5017336;28;20204;-81
2022/01/19 06:37:38;;;;;;;24.47;14.77;;;;;;;-2.48;100.00;96518.63;5015978;28;20208;-80
2022/01/19 06:40:05;;;;;;;19.47;13.27;;;;;;;-2.45;100.00;96523.66;5017297;28;20191;-80
2022/01/19 06:42:30;;;;;;;20.03;12.63;;;;;;;-2.47;100.00;96525.38;5026194;28;20284;-80
2022/01/19 06:44:56;;;;;;;19.97;12.33;;;;;;;-2.46;100.00;96530.44;5038224;28;20206;-80
2022/01/19 06:47:21;;;;;;;22.17;12.00;;;;;;;-2.45;100.00;96528.75;5036935;28;20190;-79
2022/01/19 06:49:46;;;;;;;19.40;11.80;;;;;;;-2.50;100.00;96522.94;5036544;28;20179;-80
2022/01/19 06:52:12;;;;;;;20.87;12.40;;;;;;;-2.52;100.00;96519.63;5037004;28;20309;-80
2022/01/19 06:54:37;;;;;;;18.97;12.43;;;;;;;-2.53;100.00;96516.25;5036987;28;20181;-80
2022/01/19 06:57:03;;;;;;;21.80;12.17;;;;;;;-2.48;99.92;96513.53;5036891;28;20201;-80
2022/01/19 06:59:28;;;;;;;17.43;11.83;;;;;;;-2.49;100.00;96510.16;5020663;28;20207;-81
2022/01/19 07:01:53;;;;;;;19.03;12.00;;;;;;;-2.53;100.00;96502.69;5039766;28;20186;-81
2022/01/19 07:04:19;;;;;;;19.03;12.03;;;;;;;-2.58;99.61;96515.53;5034981;28;20269;-81
2022/01/19 07:06:45;;;;;;;24.57;12.73;;;;;;;-2.59;99.69;96507.06;5033105;28;20700;-80
2022/01/19 07:09:10;;;;;;;19.87;11.27;;;;;;;-2.47;99.40;96505.03;5032968;28;20211;-80
2022/01/19 07:11:36;;;;;;;19.73;11.97;;;;;;;-2.54;99.22;96517.13;5032895;28;20184;-81
2022/01/19 07:14:03;;;;;;;18.13;11.13;;;;;;;-2.59;99.31;96512.16;5033529;28;20180;-81
2022/01/19 07:16:28;;;;;;;16.23;11.63;;;;;;;-2.62;99.34;96507.16;5033547;28;20182;-79
2022/01/19 07:18:54;;;;;;;15.03;10.50;;;;;;;-2.62;99.26;96507.16;5033211;28;20693;-81
2022/01/19 07:21:19;;;;;;;18.63;12.20;;;;;;;-2.63;99.36;96512.31;5032438;28;20250;-80
2022/01/19 07:23:44;;;;;;;18.80;13.57;;;;;;;-2.66;99.17;96507.28;5016000;28;20206;-79
2022/01/19 07:26:10;;;;;;;22.60;12.73;;;;;;;-2.71;99.79;96499.81;5032235;28;20216;-81
2022/01/19 07:28:35;;;;;;;19.50;11.57;;;;;;;-2.64;99.61;96497.94;5034076;28;20207;-81
2022/01/19 07:31:00;;;;;;;16.47;12.57;;;;;;;-2.57;99.63;96495.13;5035199;28;20174;-81
2022/01/19 07:33:25;;;;;;;19.63;11.97;;;;;;;-2.55;99.86;96496.81;5033494;28;20212;-81
2022/01/19 07:35:51;;;;;;;17.47;11.13;;;;;;;-2.42;98.94;96493.03;5034042;28;20669;-81
2022/01/19 07:38:18;;;;;;;20.03;11.63;;;;;;;-2.43;98.96;96494.75;5035269;28;20231;-81
2022/01/19 07:40:43;;;;;;;19.40;12.50;;;;;;;-2.48;98.77;96495.75;5034728;28;20195;-81
2022/01/19 07:43:08;;;;;;;16.93;12.20;;;;;;;-2.47;98.78;96489.78;5032037;28;20274;-79
2022/01/19 07:45:34;;;;;;;17.20;12.83;;;;;;;-2.55;99.02;96484.94;5033000;28;20210;-79
2022/01/19 07:47:59;;;;;;;21.00;12.53;;;;;;;-2.48;98.74;96485.56;5032723;28;20217;-82
2022/01/19 07:50:25;;;;;;;19.20;12.23;;;;;;;-2.45;99.05;96481.25;5031887;28;20207;-80
2022/01/19 07:52:50;;;;;;;20.20;12.63;;;;;;;-2.37;99.18;96484.38;5032587;28;20663;-81
2022/01/19 07:55:15;;;;;;;19.23;12.10;;;;;;;-2.39;98.47;96491.22;5016329;28;20185;-78
2022/01/19 07:57:45;;;;;;;21.23;13.20;;;;;;;-2.37;99.20;96489.47;5032664;28;20206;-82
2022/01/19 08:00:10;;;;;;;20.43;13.27;;;;;;;-2.33;98.67;96487.66;5037442;28;20526;-83
2022/01/19 08:02:36;;;;;;;33.13;18.13;;;;;;;-2.31;98.85;96485.88;5038526;28;20189;-83
2022/01/19 08:05:02;;;;;;;25.87;15.77;;;;;;;-2.29;99.16;96479.91;5033034;28;20210;-82
2022/01/19 08:07:27;;;;;;;22.00;13.73;;;;;;;-2.28;99.22;96488.38;5012395;28;20184;-82
2022/01/19 08:09:53;;;;;;;22.67;13.77;;;;;;;-2.30;99.58;96485.00;5027762;28;20195;-82
2022/01/19 08:12:18;;;;;;;21.53;13.23;;;;;;;-2.25;99.50;96493.34;5024106;28;20225;-83
2022/01/19 08:14:44;;;;;;;20.90;13.33;;;;;;;-2.24;99.41;96489.91;5031841;28;20188;-80
2022/01/19 08:17:11;;;;;;;22.20;13.73;;;;;;;-2.20;99.64;96494.06;5032248;28;20180;-81
2022/01/19 08:19:36;;;;;;;19.50;14.30;;;;;;;-2.08;99.53;96492.81;5033404;28;20191;-81
2022/01/19 08:22:02;;;;;;;21.47;14.43;;;;;;;-2.05;99.00;96495.25;5032481;28;20249;-81
2022/01/19 08:24:27;;;;;;;21.37;14.37;;;;;;;-2.01;98.86;96490.03;5049585;28;20229;-82
2022/01/19 08:26:54;;;;;;;21.57;14.00;;;;;;;-1.91;98.92;96487.22;5031848;28;20198;-82
2022/01/19 08:29:19;;;;;;;22.33;13.23;;;;;;;-1.93;98.26;96483.88;5025967;28;20203;-81
2022/01/19 08:31:45;;;;;;;23.97;14.13;;;;;;;-1.87;98.53;96483.66;5029706;28;20190;-82
2022/01/19 08:34:10;;;;;;;21.33;12.97;;;;;;;-1.81;98.54;96483.47;5030835;28;20699;-82
2022/01/19 08:36:35;;;;;;;20.10;13.57;;;;;;;-1.73;98.38;96484.88;5031839;28;20199;-82
2022/01/19 08:39:01;;;;;;;22.20;14.13;;;;;;;-1.62;97.89;96483.69;5013617;28;20215;-82
2022/01/19 08:41:26;;;;;;;24.90;14.77;;;;;;;-1.67;97.72;96488.97;5031439;28;20195;-82
2022/01/19 08:43:51;;;;;;;23.30;14.43;;;;;;;-1.58;97.63;96490.38;5029199;28;20707;-83
2022/01/19 08:46:17;;;;;;;18.93;13.63;;;;;;;-1.58;97.23;96491.19;5032147;28;20202;-83
2022/01/19 08:48:42;;;;;;;20.57;13.43;;;;;;;-1.45;96.85;96489.88;5030707;28;20210;-83
2022/01/19 08:51:07;;;;;;;20.57;13.60;;;;;;;-1.41;96.42;96488.09;5031048;28;20234;-83
2022/01/19 08:53:33;;;;;;;23.00;13.07;;;;;;;-1.33;96.62;96486.09;5013590;28;20216;-82
2022/01/19 08:55:58;;;;;;;21.40;13.17;;;;;;;-1.23;96.62;96491.72;5030576;28;20705;-81
2022/01/19 08:58:24;;;;;;;19.17;12.70;;;;;;;-1.09;96.77;96491.22;5010788;28;20686;-82
2022/01/19 09:00:49;;;;;;;17.93;12.90;;;;;;;-1.05;96.42;96498.72;5028565;28;20197;-81
2022/01/19 09:03:16;;;;;;;18.67;13.37;;;;;;;-0.93;96.36;96494.91;5030148;28;20264;-80
2022/01/19 09:05:41;;;;;;;36.57;15.43;;;;;;;-0.88;95.81;96503.22;5014603;28;20220;-83
2022/01/19 09:08:07;;;;;;;29.43;16.43;;;;;;;-0.81;95.58;96498.72;5031382;28;20216;-83
2022/01/19 09:10:32;;;;;;;29.90;16.80;;;;;;;-0.77;95.11;96495.19;5032755;28;20212;-82
2022/01/19 09:12:57;;;;;;;22.07;14.60;;;;;;;-0.66;95.31;96498.16;5013030;28;20193;-83
2022/01/19 09:15:23;;;;;;;21.47;13.10;;;;;;;-0.65;94.62;96492.16;5013964;28;20214;-83
2022/01/19 09:17:49;;;;;;;21.10;12.80;;;;;;;-0.56;94.50;96494.38;5016536;28;20271;-83
2022/01/19 09:20:16;;;;;;;26.30;14.40;;;;;;;-0.53;93.94;96491.72;5015070;28;20649;-83
2022/01/19 09:22:41;;;;;;;21.10;12.20;;;;;;;-0.39;94.34;96484.38;5030512;28;20201;-83
2022/01/19 09:25:08;;;;;;;78.97;32.03;;;;;;;-0.30;93.68;96481.47;5031415;28;20215;-83
2022/01/19 09:27:34;;;;;;;100.77;43.47;;;;;;;-0.23;93.21;96487.19;5012856;28;20240;-83
2022/01/19 09:30:00;;;;;;;38.30;19.00;;;;;;;-0.14;92.81;96480.88;5016739;28;20189;-83
2022/01/19 09:32:26;;;;;;;23.87;13.37;;;;;;;-0.09;92.07;96484.06;5032015;28;20194;-83
2022/01/19 09:34:56;;;;;;;22.57;16.07;;;;;;;-0.07;91.73;96484.88;5015777;28;20231;-83
2022/01/19 09:37:22;;;;;;;21.73;15.17;;;;;;;-0.01;91.42;96480.31;5031134;28;20196;-82
2022/01/19 09:39:48;;;;;;;26.40;15.60;;;;;;;-0.03;90.78;96477.00;5015274;28;20220;-83
2022/01/19 09:42:13;;;;;;;18.17;14.00;;;;;;;0.00;90.91;96473.53;5033481;28;20193;-84
2022/01/19 09:44:39;;;;;;;17.53;11.83;;;;;;;0.08;89.77;96465.53;5032811;28;20225;-84
2022/01/19 09:47:05;;;;;;;16.10;11.00;;;;;;;0.17;90.22;96470.25;5032608;28;20198;-83
2022/01/19 09:49:30;;;;;;;18.87;12.20;;;;;;;0.22;89.29;96469.19;5032895;28;20219;-83
2022/01/19 09:51:56;;;;;;;15.03;10.53;;;;;;;0.26;89.05;96468.16;5017135;28;20208;-83
2022/01/19 09:54:24;;;;;;;16.87;10.53;;;;;;;0.40;88.88;96470.16;5031687;28;20184;-83
2022/01/19 09:56:50;;;;;;;14.33;10.17;;;;;;;0.51;88.32;96457.75;5033199;28;20259;-83
2022/01/19 09:59:16;;;;;;;12.23;8.40;;;;;;;0.59;87.53;96457.44;5035507;28;20205;-83
2022/01/19 10:01:53;;;;;;;13.37;8.67;;;;;;;0.57;86.29;96456.69;5018908;28;20595;-81
2022/01/19 10:04:27;;;;;;;11.27;7.97;;;;;;;0.70;87.16;96455.25;5020259;28;20209;-82
2022/01/19 10:07:24;;;;;;;13.50;8.50;;;;;;;0.73;86.68;96455.16;5018766;28;20587;-82
2022/01/19 10:10:01;;;;;;;10.60;7.57;;;;;;;0.83;86.81;96446.19;5034843;28;20244;-83
2022/01/19 10:18:31;;;;;;;16.10;10.37;;;;;;;0.96;85.49;96420.06;5035994;28;20201;-83
2022/01/19 10:21:16;;;;;;;15.23;8.77;;;;;;;1.00;85.80;96411.38;5034866;28;20189;-82
2022/01/19 10:23:48;;;;;;;12.47;9.67;;;;;;;0.97;85.17;96408.91;5034915;28;20198;-82
2022/01/19 10:26:15;;;;;;;17.30;9.83;;;;;;;1.08;85.38;96405.00;5019625;28;20182;-82
2022/01/19 10:29:03;;;;;;;15.70;9.63;;;;;;;1.16;85.46;96398.72;5034780;28;20294;-82
2022/01/19 10:31:30;;;;;;;15.30;9.93;;;;;;;1.08;84.31;96397.34;5022091;28;20182;-82
2022/01/19 10:34:17;;;;;;;12.93;8.63;;;;;;;1.14;83.40;96396.22;5020074;28;20182;-82
2022/01/19 10:36:49;;;;;;;12.83;7.93;;;;;;;1.12;83.19;96395.44;5024089;28;20190;-82
2022/01/19 10:39:16;;;;;;;11.90;7.47;;;;;;;1.15;82.94;96395.34;5039572;28;20210;-82
2022/01/19 10:42:02;;;;;;;11.10;6.87;;;;;;;1.20;81.92;96395.94;5038267;28;20200;-83
2022/01/19 10:44:38;;;;;;;11.17;6.50;;;;;;;1.23;81.45;96393.22;5035456;28;20199;-81
2022/01/19 10:47:05;;;;;;;9.33;6.57;;;;;;;1.27;81.23;96393.94;5019441;28;20177;-79
2022/01/19 10:50:06;;;;;;;8.37;7.00;;;;;;;1.22;81.98;96386.44;5051913;28;20264;-82
2022/01/19 10:52:32;;;;;;;12.50;7.73;;;;;;;1.37;82.38;96400.28;4990187;28;20231;-83
2022/01/19 10:54:59;;;;;;;13.40;7.93;;;;;;;1.35;81.74;96392.69;4975494;28;20188;-80
2022/01/19 10:57:25;;;;;;;13.47;8.50;;;;;;;1.30;82.02;96391.22;4973372;28;20239;-81
2022/01/19 10:59:50;;;;;;;10.43;7.23;;;;;;;1.28;81.79;96396.41;4977774;28;20195;-82
2022/01/19 11:02:17;;;;;;;10.47;7.10;;;;;;;1.27;82.23;96387.09;4978915;28;20259;-82
2022/01/19 11:04:42;;;;;;;11.10;7.20;;;;;;;1.40;82.17;96393.28;4962492;28;20737;-81
2022/01/19 11:07:19;;;;;;;10.40;6.70;;;;;;;1.50;82.03;96387.72;4978374;28;20187;-81
2022/01/19 11:09:46;;;;;;;8.87;7.13;;;;;;;1.39;81.28;96380.56;4976906;28;20203;-81
2022/01/19 11:12:15;;;;;;;11.40;8.10;;;;;;;1.36;82.01;96378.97;4976815;28;20622;-81
2022/01/19 11:14:41;;;;;;;14.67;8.27;;;;;;;1.52;82.24;96388.50;4993567;28;20649;-82
2022/01/19 11:17:07;;;;;;;15.07;7.80;;;;;;;1.54;82.16;96381.59;4976878;28;20292;-81
2022/01/19 11:19:40;;;;;;;12.13;7.97;;;;;;;1.50;82.10;96380.06;4960690;28;20778;-81
2022/01/19 11:22:05;;;;;;;12.83;7.73;;;;;;;1.73;80.11;96379.78;4976528;28;20222;-81
2022/01/19 11:24:45;;;;;;;10.60;8.03;;;;;;;1.59;81.48;96375.34;4992848;28;20327;-81
2022/01/19 11:27:11;;;;;;;10.60;8.67;;;;;;;1.46;82.38;96370.88;5015054;28;20580;-81
2022/01/19 11:29:38;;;;;;;14.20;8.73;;;;;;;1.56;82.28;96365.25;5033344;28;20225;-81
2022/01/19 11:32:20;;;;;;;10.60;7.80;;;;;;;1.75;82.04;96364.34;5016836;28;20300;-82
2022/01/19 11:34:51;;;;;;;13.10;8.20;;;;;;;1.90;80.77;96364.44;5017616;28;20167;-82
2022/01/19 11:37:57;;;;;;;12.93;8.00;;;;;;;2.03;80.42;96362.09;5036284;28;20238;-82
2022/01/19 11:40:33;;;;;;;12.17;9.03;;;;;;;1.98;79.16;96351.25;5022902;28;20254;-81
2022/01/19 11:43:20;;;;;;;12.80;8.50;;;;;;;1.98;79.92;96338.47;5019428;28;20212;-82
2022/01/19 11:45:46;;;;;;;13.13;8.70;;;;;;;2.12;79.58;96341.19;5039458;28;20221;-83
2022/01/19 11:48:15;;;;;;;16.83;10.00;;;;;;;2.05;80.02;96336.44;5039143;28;20241;-82
2022/01/19 11:50:41;;;;;;;12.60;9.07;;;;;;;2.00;79.77;96336.66;5041104;28;20270;-81
2022/01/19 11:53:11;;;;;;;14.07;9.87;;;;;;;2.13;79.32;96324.06;5038036;28;20183;-82
2022/01/19 11:55:38;;;;;;;14.23;9.13;;;;;;;2.13;78.92;96329.19;5020659;28;20178;-82
2022/01/19 11:58:15;;;;;;;13.80;9.57;;;;;;;2.07;78.75;96321.81;5038015;28;20206;-82
2022/01/19 12:00:44;;;;;;;14.20;8.23;;;;;;;2.07;78.56;96324.38;5036641;28;20179;-82
2022/01/19 12:03:21;;;;;;;13.00;8.70;;;;;;;2.09;78.53;96323.38;5048826;28;20191;-81
2022/01/19 12:05:50;;;;;;;13.63;8.50;;;;;;;2.18;77.67;96332.31;5016491;28;20206;-80
2022/01/19 12:08:32;;;;;;;11.27;8.63;;;;;;;2.33;77.16;96329.00;5031171;28;20233;-81
2022/01/19 12:11:11;;;;;;;12.07;8.00;;;;;;;2.33;76.57;96323.88;5026460;28;20187;-82
2022/01/19 12:16:26;;;;;;;11.13;7.30;;;;;;;2.77;75.32;96319.00;5034353;28;20611;-82
2022/01/19 12:19:07;;;;;;;11.57;7.30;;;;;;;3.04;74.24;96315.84;5035676;28;20770;-81
2022/01/19 12:21:32;;;;;;;11.00;6.90;;;;;;;3.15;73.15;96310.97;5034726;28;20181;-81
2022/01/19 12:24:22;;;;;;;11.60;6.93;;;;;;;3.47;72.12;96311.75;5052353;28;20207;-81
2022/01/19 12:26:53;;;;;;;12.60;7.67;;;;;;;3.34;72.71;96313.34;5029771;28;20265;-80
2022/01/19 12:29:38;;;;;;;9.37;6.63;;;;;;;3.44;71.47;96324.75;5034358;28;20681;-81
2022/01/19 12:32:04;;;;;;;9.73;6.50;;;;;;;3.59;71.66;96320.50;5035247;28;20174;-82
2022/01/19 12:34:41;;;;;;;10.87;7.93;;;;;;;3.41;71.42;96314.66;5037288;28;20183;-82
2022/01/19 12:37:09;;;;;;;13.63;7.57;;;;;;;3.47;71.38;96316.91;5025569;28;20195;-81
2022/01/19 12:39:37;;;;;;;9.70;7.17;;;;;;;3.42;71.37;96311.19;5041537;28;20198;-82
2022/01/19 12:42:04;;;;;;;10.47;7.83;;;;;;;3.13;72.23;96310.22;5015737;28;20175;-79
2022/01/19 12:44:35;;;;;;;13.60;7.40;;;;;;;2.92;72.79;96299.41;5024012;28;20206;-81
2022/01/19 12:47:05;;;;;;;11.60;8.53;;;;;;;2.75;73.56;96291.78;5041671;28;20352;-80
2022/01/19 12:49:31;;;;;;;12.93;7.57;;;;;;;2.57;73.48;96303.84;5008664;28;20247;-80
2022/01/19 12:51:57;;;;;;;15.40;8.17;;;;;;;2.70;74.32;96288.63;5024967;28;20190;-80
2022/01/19 12:54:27;;;;;;;11.93;7.50;;;;;;;2.68;74.39;96287.88;5024126;28;20178;-80
2022/01/19 12:56:58;;;;;;;11.03;7.47;;;;;;;2.58;74.22;96279.84;5032584;28;20182;-83